sensor_id;sensor_type;location;lat;lon;timestamp;temperature;humidity
12115;DHT22;6121;49.810;6.418;2023-10-13T00:02:11;15.90;99.90
12115;DHT22;6121;49.810;6.418;2023-10-13T00:04:39;15.80;99.90
12115;DHT22;6121;49.810;6.418;2023-10-13T00:07:05;15.90;99.90
12115;DHT22;6121;49.810;6.418;2023-10-13T00:09:34;15.90;99.90
12115;DHT22;6121;49.810;6.418;2023-10-13T00:12:05;16.00;99.90
12115;DHT22;6121;49.810;6.418;2023-10-13T00:14:35;15.80;99.90
12115;DHT22;6121;49.810;6.418;2023-10-13T00:17:04;15.70;99.90
12115;DHT22;6121;49.810;6.418;2023-10-13T00:19:35;15.80;99.90
12115;DHT22;6121;49.810;6.418;2023-10-13T00:22:10;15.70;99.90
12115;DHT22;6121;49.810;6.418;2023-10-13T00:24:40;15.70;99.90
12115;DHT22;6121;49.810;6.418;2023-10-13T00:27:10;15.60;99.90
12115;DHT22;6121;49.810;6.418;2023-10-13T00:29:51;15.70;99.90
12115;DHT22;6121;49.810;6.418;2023-10-13T00:32:16;15.70;99.90
12115;DHT22;6121;49.810;6.418;2023-10-13T00:34:48;15.70;99.90
12115;DHT22;6121;49.810;6.418;2023-10-13T00:37:20;15.60;99.90
12115;DHT22;6121;49.810;6.418;2023-10-13T00:39:53;15.30;99.90
12115;DHT22;6121;49.810;6.418;2023-10-13T00:42:22;16.00;99.90
12115;DHT22;6121;49.810;6.418;2023-10-13T00:45:14;15.60;99.90
12115;DHT22;6121;49.810;6.418;2023-10-13T00:47:43;15.70;99.90
12115;DHT22;6121;49.810;6.418;2023-10-13T00:50:22;15.50;99.90
12115;DHT22;6121;49.810;6.418;2023-10-13T00:52:49;15.60;99.90
12115;DHT22;6121;49.810;6.418;2023-10-13T00:55:19;15.60;99.90
12115;DHT22;6121;49.810;6.418;2023-10-13T00:57:51;15.60;99.90
12115;DHT22;6121;49.810;6.418;2023-10-13T01:00:20;15.70;99.90
12115;DHT22;6121;49.810;6.418;2023-10-13T01:02:52;15.50;99.90
12115;DHT22;6121;49.810;6.418;2023-10-13T01:05:41;15.80;99.90
12115;DHT22;6121;49.810;6.418;2023-10-13T01:08:07;15.60;99.90
12115;DHT22;6121;49.810;6.418;2023-10-13T01:10:38;15.60;99.90
12115;DHT22;6121;49.810;6.418;2023-10-13T01:13:03;15.20;99.90
12115;DHT22;6121;49.810;6.418;2023-10-13T01:15:30;15.50;99.90
12115;DHT22;6121;49.810;6.418;2023-10-13T01:18:11;15.60;99.90
12115;DHT22;6121;49.810;6.418;2023-10-13T01:20:39;15.50;99.90
12115;DHT22;6121;49.810;6.418;2023-10-13T01:23:13;15.50;99.90
12115;DHT22;6121;49.810;6.418;2023-10-13T01:25:50;15.50;99.90
12115;DHT22;6121;49.810;6.418;2023-10-13T01:28:16;15.50;99.90
12115;DHT22;6121;49.810;6.418;2023-10-13T01:30:43;15.60;99.90
12115;DHT22;6121;49.810;6.418;2023-10-13T01:33:09;15.50;99.90
12115;DHT22;6121;49.810;6.418;2023-10-13T01:35:37;15.70;99.90
12115;DHT22;6121;49.810;6.418;2023-10-13T01:38:13;15.60;99.90
12115;DHT22;6121;49.810;6.418;2023-10-13T01:40:39;15.70;99.90
12115;DHT22;6121;49.810;6.418;2023-10-13T01:43:05;15.70;99.90
12115;DHT22;6121;49.810;6.418;2023-10-13T01:45:40;15.80;99.90
12115;DHT22;6121;49.810;6.418;2023-10-13T01:48:12;15.70;99.90
12115;DHT22;6121;49.810;6.418;2023-10-13T01:50:42;15.80;99.90
12115;DHT22;6121;49.810;6.418;2023-10-13T01:53:08;15.90;99.90
12115;DHT22;6121;49.810;6.418;2023-10-13T01:55:43;15.80;99.90
12115;DHT22;6121;49.810;6.418;2023-10-13T01:58:15;15.80;99.90
12115;DHT22;6121;49.810;6.418;2023-10-13T02:00:46;15.80;99.90
12115;DHT22;6121;49.810;6.418;2023-10-13T02:03:13;15.90;99.90
12115;DHT22;6121;49.810;6.418;2023-10-13T02:05:47;15.90;99.90
12115;DHT22;6121;49.810;6.418;2023-10-13T02:08:21;15.90;99.90
12115;DHT22;6121;49.810;6.418;2023-10-13T02:10:51;15.90;99.90
12115;DHT22;6121;49.810;6.418;2023-10-13T02:13:18;15.90;99.90
12115;DHT22;6121;49.810;6.418;2023-10-13T02:15:49;15.90;99.90
12115;DHT22;6121;49.810;6.418;2023-10-13T02:18:20;15.80;99.90
12115;DHT22;6121;49.810;6.418;2023-10-13T02:20:55;15.80;99.90
12115;DHT22;6121;49.810;6.418;2023-10-13T02:23:25;16.40;99.90
12115;DHT22;6121;49.810;6.418;2023-10-13T02:25:55;15.80;99.90
12115;DHT22;6121;49.810;6.418;2023-10-13T02:28:29;15.80;99.90
12115;DHT22;6121;49.810;6.418;2023-10-13T02:31:02;15.80;99.90
12115;DHT22;6121;49.810;6.418;2023-10-13T02:33:29;16.00;99.90
12115;DHT22;6121;49.810;6.418;2023-10-13T02:36:00;15.70;99.90
12115;DHT22;6121;49.810;6.418;2023-10-13T02:38:29;16.30;99.90
12115;DHT22;6121;49.810;6.418;2023-10-13T02:41:13;15.80;99.90
12115;DHT22;6121;49.810;6.418;2023-10-13T02:43:44;15.80;99.90
12115;DHT22;6121;49.810;6.418;2023-10-13T02:46:10;16.30;99.90
12115;DHT22;6121;49.810;6.418;2023-10-13T02:48:36;15.70;99.90
12115;DHT22;6121;49.810;6.418;2023-10-13T02:51:12;16.30;99.90
12115;DHT22;6121;49.810;6.418;2023-10-13T02:53:45;15.70;99.90
12115;DHT22;6121;49.810;6.418;2023-10-13T02:56:16;16.00;99.90
12115;DHT22;6121;49.810;6.418;2023-10-13T02:58:49;15.80;99.90
12115;DHT22;6121;49.810;6.418;2023-10-13T03:01:20;15.80;99.90
12115;DHT22;6121;49.810;6.418;2023-10-13T03:03:48;16.30;99.90
12115;DHT22;6121;49.810;6.418;2023-10-13T03:06:20;15.80;99.90
12115;DHT22;6121;49.810;6.418;2023-10-13T03:08:51;16.00;99.90
12115;DHT22;6121;49.810;6.418;2023-10-13T03:11:17;16.00;99.90
12115;DHT22;6121;49.810;6.418;2023-10-13T03:13:50;15.80;99.90
12115;DHT22;6121;49.810;6.418;2023-10-13T03:16:18;15.90;99.90
12115;DHT22;6121;49.810;6.418;2023-10-13T03:18:46;15.90;99.90
12115;DHT22;6121;49.810;6.418;2023-10-13T03:21:23;15.90;99.90
12115;DHT22;6121;49.810;6.418;2023-10-13T03:23:58;16.10;99.90
12115;DHT22;6121;49.810;6.418;2023-10-13T03:26:32;15.80;99.90
12115;DHT22;6121;49.810;6.418;2023-10-13T03:29:03;15.80;99.90
12115;DHT22;6121;49.810;6.418;2023-10-13T03:31:32;15.80;99.90
12115;DHT22;6121;49.810;6.418;2023-10-13T03:34:04;15.60;99.90
12115;DHT22;6121;49.810;6.418;2023-10-13T03:36:30;15.80;99.90
12115;DHT22;6121;49.810;6.418;2023-10-13T03:39:14;16.20;99.90
12115;DHT22;6121;49.810;6.418;2023-10-13T03:41:40;15.80;99.90
12115;DHT22;6121;49.810;6.418;2023-10-13T03:44:06;15.90;99.90
12115;DHT22;6121;49.810;6.418;2023-10-13T03:46:40;15.80;99.90
12115;DHT22;6121;49.810;6.418;2023-10-13T03:49:11;15.70;99.90
12115;DHT22;6121;49.810;6.418;2023-10-13T03:51:39;16.10;99.90
12115;DHT22;6121;49.810;6.418;2023-10-13T03:54:05;16.00;99.90
12115;DHT22;6121;49.810;6.418;2023-10-13T03:56:34;16.00;99.90
12115;DHT22;6121;49.810;6.418;2023-10-13T03:59:08;15.90;99.90
12115;DHT22;6121;49.810;6.418;2023-10-13T04:01:45;16.00;99.90
12115;DHT22;6121;49.810;6.418;2023-10-13T04:04:17;16.20;99.90
12115;DHT22;6121;49.810;6.418;2023-10-13T04:07:05;16.10;99.90
12115;DHT22;6121;49.810;6.418;2023-10-13T04:09:31;16.70;99.90
12115;DHT22;6121;49.810;6.418;2023-10-13T04:12:02;16.10;99.90
12115;DHT22;6121;49.810;6.418;2023-10-13T04:14:33;16.20;99.90
12115;DHT22;6121;49.810;6.418;2023-10-13T04:17:11;16.20;99.90
12115;DHT22;6121;49.810;6.418;2023-10-13T04:19:40;16.10;99.90
12115;DHT22;6121;49.810;6.418;2023-10-13T04:22:26;16.10;99.90
12115;DHT22;6121;49.810;6.418;2023-10-13T04:28:02;16.20;99.90
12115;DHT22;6121;49.810;6.418;2023-10-13T04:30:50;16.30;99.90
12115;DHT22;6121;49.810;6.418;2023-10-13T04:33:23;16.20;99.90
12115;DHT22;6121;49.810;6.418;2023-10-13T04:36:13;16.30;99.90
12115;DHT22;6121;49.810;6.418;2023-10-13T04:38:56;16.30;99.90
12115;DHT22;6121;49.810;6.418;2023-10-13T04:44:02;16.20;99.90
12115;DHT22;6121;49.810;6.418;2023-10-13T04:46:50;16.20;99.90
12115;DHT22;6121;49.810;6.418;2023-10-13T04:49:15;16.20;99.90
12115;DHT22;6121;49.810;6.418;2023-10-13T04:52:02;16.20;99.90
12115;DHT22;6121;49.810;6.418;2023-10-13T04:54:36;16.30;99.90
12115;DHT22;6121;49.810;6.418;2023-10-13T04:57:21;16.20;99.90
12115;DHT22;6121;49.810;6.418;2023-10-13T05:00:05;15.80;99.90
12115;DHT22;6121;49.810;6.418;2023-10-13T05:02:42;16.20;99.90
12115;DHT22;6121;49.810;6.418;2023-10-13T05:05:44;16.20;99.90
12115;DHT22;6121;49.810;6.418;2023-10-13T05:08:28;16.10;99.90
12115;DHT22;6121;49.810;6.418;2023-10-13T05:11:13;16.10;99.90
12115;DHT22;6121;49.810;6.418;2023-10-13T05:13:57;16.20;99.90
12115;DHT22;6121;49.810;6.418;2023-10-13T05:16:42;16.10;99.90
12115;DHT22;6121;49.810;6.418;2023-10-13T05:19:26;16.10;99.90
12115;DHT22;6121;49.810;6.418;2023-10-13T05:22:10;16.10;99.90
12115;DHT22;6121;49.810;6.418;2023-10-13T05:24:56;16.10;99.90
12115;DHT22;6121;49.810;6.418;2023-10-13T05:27:44;16.10;99.90
12115;DHT22;6121;49.810;6.418;2023-10-13T05:30:29;16.00;99.90
12115;DHT22;6121;49.810;6.418;2023-10-13T05:33:13;16.20;99.90
12115;DHT22;6121;49.810;6.418;2023-10-13T05:35:58;16.10;99.90
12115;DHT22;6121;49.810;6.418;2023-10-13T05:38:42;16.10;99.90
12115;DHT22;6121;49.810;6.418;2023-10-13T05:41:27;16.00;99.90
12115;DHT22;6121;49.810;6.418;2023-10-13T05:44:11;16.00;99.90
12115;DHT22;6121;49.810;6.418;2023-10-13T05:46:55;16.00;99.90
12115;DHT22;6121;49.810;6.418;2023-10-13T05:49:47;16.00;99.90
12115;DHT22;6121;49.810;6.418;2023-10-13T05:52:16;15.90;99.90
12115;DHT22;6121;49.810;6.418;2023-10-13T05:54:46;15.80;99.90
12115;DHT22;6121;49.810;6.418;2023-10-13T05:57:31;15.80;99.90
12115;DHT22;6121;49.810;6.418;2023-10-13T06:00:16;15.90;99.90
12115;DHT22;6121;49.810;6.418;2023-10-13T06:03:00;15.90;99.90
12115;DHT22;6121;49.810;6.418;2023-10-13T06:05:45;15.90;99.90
12115;DHT22;6121;49.810;6.418;2023-10-13T06:08:29;15.90;99.90
12115;DHT22;6121;49.810;6.418;2023-10-13T06:11:14;15.80;99.90
12115;DHT22;6121;49.810;6.418;2023-10-13T06:13:58;15.90;99.90
12115;DHT22;6121;49.810;6.418;2023-10-13T06:16:42;16.00;99.90
12115;DHT22;6121;49.810;6.418;2023-10-13T06:19:27;16.00;99.90
12115;DHT22;6121;49.810;6.418;2023-10-13T06:22:11;16.00;99.90
12115;DHT22;6121;49.810;6.418;2023-10-13T06:24:55;16.10;99.90
12115;DHT22;6121;49.810;6.418;2023-10-13T06:27:40;15.60;99.90
12115;DHT22;6121;49.810;6.418;2023-10-13T06:30:24;16.00;99.90
12115;DHT22;6121;49.810;6.418;2023-10-13T06:32:50;16.10;99.90
12115;DHT22;6121;49.810;6.418;2023-10-13T06:35:16;16.00;99.90
12115;DHT22;6121;49.810;6.418;2023-10-13T06:37:49;16.20;99.90
12115;DHT22;6121;49.810;6.418;2023-10-13T06:40:14;16.30;99.90
12115;DHT22;6121;49.810;6.418;2023-10-13T06:42:59;15.90;99.90
12115;DHT22;6121;49.810;6.418;2023-10-13T06:45:40;16.20;99.90
12115;DHT22;6121;49.810;6.418;2023-10-13T06:48:06;16.20;99.90
12115;DHT22;6121;49.810;6.418;2023-10-13T06:50:36;16.30;99.90
12115;DHT22;6121;49.810;6.418;2023-10-13T06:53:07;16.10;99.90
12115;DHT22;6121;49.810;6.418;2023-10-13T06:55:37;16.30;99.90
12115;DHT22;6121;49.810;6.418;2023-10-13T06:58:06;16.20;99.90
12115;DHT22;6121;49.810;6.418;2023-10-13T07:00:33;16.80;99.90
12115;DHT22;6121;49.810;6.418;2023-10-13T07:03:00;16.40;99.90
12115;DHT22;6121;49.810;6.418;2023-10-13T07:05:36;16.40;99.90
12115;DHT22;6121;49.810;6.418;2023-10-13T07:08:07;16.60;99.90
12115;DHT22;6121;49.810;6.418;2023-10-13T07:10:35;16.70;99.90
12115;DHT22;6121;49.810;6.418;2023-10-13T07:13:20;16.70;99.90
12115;DHT22;6121;49.810;6.418;2023-10-13T07:15:47;16.90;99.90
12115;DHT22;6121;49.810;6.418;2023-10-13T07:18:14;16.80;99.90
12115;DHT22;6121;49.810;6.418;2023-10-13T07:20:42;16.80;99.90
12115;DHT22;6121;49.810;6.418;2023-10-13T07:23:14;17.00;99.90
12115;DHT22;6121;49.810;6.418;2023-10-13T07:25:56;17.30;99.90
12115;DHT22;6121;49.810;6.418;2023-10-13T07:28:32;17.10;99.90
12115;DHT22;6121;49.810;6.418;2023-10-13T07:31:04;17.70;99.90
12115;DHT22;6121;49.810;6.418;2023-10-13T07:33:30;17.30;99.90
12115;DHT22;6121;49.810;6.418;2023-10-13T07:36:02;17.30;99.90
12115;DHT22;6121;49.810;6.418;2023-10-13T07:38:40;17.40;99.90
12115;DHT22;6121;49.810;6.418;2023-10-13T07:41:08;17.60;99.90
12115;DHT22;6121;49.810;6.418;2023-10-13T07:43:34;17.60;99.90
12115;DHT22;6121;49.810;6.418;2023-10-13T07:46:03;17.70;99.90
12115;DHT22;6121;49.810;6.418;2023-10-13T07:48:36;17.60;99.90
12115;DHT22;6121;49.810;6.418;2023-10-13T07:51:08;18.30;99.90
12115;DHT22;6121;49.810;6.418;2023-10-13T07:53:42;19.40;99.90
12115;DHT22;6121;49.810;6.418;2023-10-13T07:56:12;19.20;99.90
12115;DHT22;6121;49.810;6.418;2023-10-13T07:58:38;19.40;99.90
12115;DHT22;6121;49.810;6.418;2023-10-13T08:01:28;19.60;99.90
12115;DHT22;6121;49.810;6.418;2023-10-13T08:03:54;20.00;99.90
12115;DHT22;6121;49.810;6.418;2023-10-13T08:06:30;19.50;99.90
12115;DHT22;6121;49.810;6.418;2023-10-13T08:08:56;19.50;99.90
12115;DHT22;6121;49.810;6.418;2023-10-13T08:11:55;19.40;99.90
12115;DHT22;6121;49.810;6.418;2023-10-13T08:14:21;19.30;99.90
12115;DHT22;6121;49.810;6.418;2023-10-13T08:16:54;19.50;99.90
12115;DHT22;6121;49.810;6.418;2023-10-13T08:19:26;19.50;99.90
12115;DHT22;6121;49.810;6.418;2023-10-13T08:22:02;19.80;99.90
12115;DHT22;6121;49.810;6.418;2023-10-13T08:24:44;20.00;99.90
12115;DHT22;6121;49.810;6.418;2023-10-13T08:27:13;20.40;99.90
12115;DHT22;6121;49.810;6.418;2023-10-13T08:29:57;21.30;99.90
12115;DHT22;6121;49.810;6.418;2023-10-13T08:32:30;21.50;99.90
12115;DHT22;6121;49.810;6.418;2023-10-13T08:34:57;21.90;99.90
12115;DHT22;6121;49.810;6.418;2023-10-13T08:37:23;21.80;99.90
12115;DHT22;6121;49.810;6.418;2023-10-13T08:39:49;22.10;99.90
12115;DHT22;6121;49.810;6.418;2023-10-13T08:42:36;22.00;99.90
12115;DHT22;6121;49.810;6.418;2023-10-13T08:45:22;21.80;99.90
12115;DHT22;6121;49.810;6.418;2023-10-13T08:47:49;21.70;99.90
12115;DHT22;6121;49.810;6.418;2023-10-13T08:50:35;21.60;99.90
12115;DHT22;6121;49.810;6.418;2023-10-13T08:53:27;21.60;99.90
12115;DHT22;6121;49.810;6.418;2023-10-13T08:56:07;21.60;99.90
12115;DHT22;6121;49.810;6.418;2023-10-13T08:58:47;21.30;99.90
12115;DHT22;6121;49.810;6.418;2023-10-13T09:01:20;21.20;99.90
12115;DHT22;6121;49.810;6.418;2023-10-13T09:04:13;21.60;99.90
12115;DHT22;6121;49.810;6.418;2023-10-13T09:06:52;21.10;99.90
12115;DHT22;6121;49.810;6.418;2023-10-13T09:09:32;21.00;99.90
12115;DHT22;6121;49.810;6.418;2023-10-13T09:12:30;21.00;99.90
12115;DHT22;6121;49.810;6.418;2023-10-13T09:15:03;21.20;99.90
12115;DHT22;6121;49.810;6.418;2023-10-13T09:17:43;21.50;99.90
12115;DHT22;6121;49.810;6.418;2023-10-13T09:20:30;21.60;99.90
12115;DHT22;6121;49.810;6.418;2023-10-13T09:23:10;21.90;99.90
12115;DHT22;6121;49.810;6.418;2023-10-13T09:25:39;21.90;99.90
12115;DHT22;6121;49.810;6.418;2023-10-13T09:28:20;21.70;99.90
12115;DHT22;6121;49.810;6.418;2023-10-13T09:30:52;21.60;99.90
12115;DHT22;6121;49.810;6.418;2023-10-13T09:33:26;21.50;99.90
12115;DHT22;6121;49.810;6.418;2023-10-13T09:36:16;21.30;99.90
12115;DHT22;6121;49.810;6.418;2023-10-13T09:38:43;21.40;99.90
12115;DHT22;6121;49.810;6.418;2023-10-13T09:41:37;21.50;99.90
12115;DHT22;6121;49.810;6.418;2023-10-13T09:44:03;21.70;99.90
12115;DHT22;6121;49.810;6.418;2023-10-13T09:46:30;22.00;99.90
12115;DHT22;6121;49.810;6.418;2023-10-13T09:49:08;22.30;99.90
12115;DHT22;6121;49.810;6.418;2023-10-13T09:51:40;22.70;99.90
12115;DHT22;6121;49.810;6.418;2023-10-13T09:54:18;22.40;99.90
12115;DHT22;6121;49.810;6.418;2023-10-13T09:56:53;22.50;99.90
12115;DHT22;6121;49.810;6.418;2023-10-13T09:59:26;22.60;99.90
12115;DHT22;6121;49.810;6.418;2023-10-13T10:02:03;22.60;99.90
12115;DHT22;6121;49.810;6.418;2023-10-13T10:04:54;22.40;99.90
12115;DHT22;6121;49.810;6.418;2023-10-13T10:07:36;23.00;99.90
12115;DHT22;6121;49.810;6.418;2023-10-13T10:10:05;24.20;99.90
12115;DHT22;6121;49.810;6.418;2023-10-13T10:13:01;24.60;99.90
12115;DHT22;6121;49.810;6.418;2023-10-13T10:15:35;24.90;99.90
12115;DHT22;6121;49.810;6.418;2023-10-13T10:18:22;25.90;99.90
12115;DHT22;6121;49.810;6.418;2023-10-13T10:20:51;26.60;99.90
12115;DHT22;6121;49.810;6.418;2023-10-13T10:23:25;26.90;99.90
12115;DHT22;6121;49.810;6.418;2023-10-13T10:25:52;27.20;99.90
12115;DHT22;6121;49.810;6.418;2023-10-13T10:28:21;27.80;99.90
12115;DHT22;6121;49.810;6.418;2023-10-13T10:30:47;27.80;99.90
12115;DHT22;6121;49.810;6.418;2023-10-13T10:33:13;27.40;99.90
12115;DHT22;6121;49.810;6.418;2023-10-13T10:35:46;27.10;99.90
12115;DHT22;6121;49.810;6.418;2023-10-13T10:38:19;27.10;99.90
12115;DHT22;6121;49.810;6.418;2023-10-13T10:41:02;27.20;99.90
12115;DHT22;6121;49.810;6.418;2023-10-13T10:46:13;27.60;99.90
12115;DHT22;6121;49.810;6.418;2023-10-13T10:48:39;28.20;99.90
12115;DHT22;6121;49.810;6.418;2023-10-13T10:51:15;28.00;99.90
12115;DHT22;6121;49.810;6.418;2023-10-13T10:53:51;28.30;99.90
12115;DHT22;6121;49.810;6.418;2023-10-13T10:56:21;28.80;99.90
12115;DHT22;6121;49.810;6.418;2023-10-13T10:58:54;29.10;99.90
12115;DHT22;6121;49.810;6.418;2023-10-13T11:01:24;29.30;99.90
12115;DHT22;6121;49.810;6.418;2023-10-13T11:04:01;29.30;99.90
12115;DHT22;6121;49.810;6.418;2023-10-13T11:06:46;29.90;99.10
12115;DHT22;6121;49.810;6.418;2023-10-13T11:09:12;30.20;98.80
12115;DHT22;6121;49.810;6.418;2023-10-13T11:11:46;30.70;98.60
12115;DHT22;6121;49.810;6.418;2023-10-13T11:14:22;30.90;97.80
12115;DHT22;6121;49.810;6.418;2023-10-13T11:16:53;29.90;97.70
12115;DHT22;6121;49.810;6.418;2023-10-13T11:19:21;28.60;97.90
12115;DHT22;6121;49.810;6.418;2023-10-13T11:21:54;28.10;99.20
12115;DHT22;6121;49.810;6.418;2023-10-13T11:24:21;28.30;98.80
12115;DHT22;6121;49.810;6.418;2023-10-13T11:26:50;28.60;99.10
12115;DHT22;6121;49.810;6.418;2023-10-13T11:29:18;29.10;99.20
12115;DHT22;6121;49.810;6.418;2023-10-13T11:31:48;28.60;98.50
12115;DHT22;6121;49.810;6.418;2023-10-13T11:34:23;28.50;99.60
12115;DHT22;6121;49.810;6.418;2023-10-13T11:36:49;28.40;98.90
12115;DHT22;6121;49.810;6.418;2023-10-13T11:39:14;28.70;98.90
12115;DHT22;6121;49.810;6.418;2023-10-13T11:41:50;29.20;98.80
12115;DHT22;6121;49.810;6.418;2023-10-13T11:44:20;29.60;97.90
12115;DHT22;6121;49.810;6.418;2023-10-13T11:46:46;28.90;98.00
12115;DHT22;6121;49.810;6.418;2023-10-13T11:49:12;29.00;98.50
12115;DHT22;6121;49.810;6.418;2023-10-13T11:51:53;29.20;97.80
12115;DHT22;6121;49.810;6.418;2023-10-13T11:54:27;28.50;98.30
12115;DHT22;6121;49.810;6.418;2023-10-13T11:56:53;28.00;98.80
12115;DHT22;6121;49.810;6.418;2023-10-13T11:59:23;27.70;99.10
12115;DHT22;6121;49.810;6.418;2023-10-13T12:01:52;27.60;99.50
12115;DHT22;6121;49.810;6.418;2023-10-13T12:04:38;27.20;99.80
12115;DHT22;6121;49.810;6.418;2023-10-13T12:07:14;26.70;99.90
12115;DHT22;6121;49.810;6.418;2023-10-13T12:09:45;26.60;99.90
12115;DHT22;6121;49.810;6.418;2023-10-13T12:12:29;26.90;99.90
12115;DHT22;6121;49.810;6.418;2023-10-13T12:15:06;26.50;99.90
12115;DHT22;6121;49.810;6.418;2023-10-13T12:17:35;26.70;99.90
12115;DHT22;6121;49.810;6.418;2023-10-13T12:20:08;27.20;99.90
12115;DHT22;6121;49.810;6.418;2023-10-13T12:22:43;26.80;99.90
12115;DHT22;6121;49.810;6.418;2023-10-13T12:25:17;26.50;99.90
12115;DHT22;6121;49.810;6.418;2023-10-13T12:28:10;26.30;99.90
12115;DHT22;6121;49.810;6.418;2023-10-13T12:30:47;26.30;99.90
12115;DHT22;6121;49.810;6.418;2023-10-13T12:33:19;26.40;99.90
12115;DHT22;6121;49.810;6.418;2023-10-13T12:35:57;26.20;99.90
12115;DHT22;6121;49.810;6.418;2023-10-13T12:38:37;26.20;99.90
12115;DHT22;6121;49.810;6.418;2023-10-13T12:41:19;26.20;99.90
12115;DHT22;6121;49.810;6.418;2023-10-13T12:44:05;26.30;99.90
12115;DHT22;6121;49.810;6.418;2023-10-13T12:46:51;26.40;99.90
12115;DHT22;6121;49.810;6.418;2023-10-13T12:49:36;26.40;99.90
12115;DHT22;6121;49.810;6.418;2023-10-13T12:52:11;26.10;99.90
12115;DHT22;6121;49.810;6.418;2023-10-13T12:54:51;26.10;99.90
12115;DHT22;6121;49.810;6.418;2023-10-13T12:57:40;26.20;99.90
12115;DHT22;6121;49.810;6.418;2023-10-13T13:00:10;25.80;99.90
12115;DHT22;6121;49.810;6.418;2023-10-13T13:02:46;25.90;99.90
12115;DHT22;6121;49.810;6.418;2023-10-13T13:05:12;25.80;99.90
12115;DHT22;6121;49.810;6.418;2023-10-13T13:07:39;25.70;99.90
12115;DHT22;6121;49.810;6.418;2023-10-13T13:10:18;25.60;99.90
12115;DHT22;6121;49.810;6.418;2023-10-13T13:12:44;25.60;99.90
12115;DHT22;6121;49.810;6.418;2023-10-13T13:15:10;25.50;99.90
12115;DHT22;6121;49.810;6.418;2023-10-13T13:17:39;25.50;99.90
12115;DHT22;6121;49.810;6.418;2023-10-13T13:20:06;25.50;99.90
12115;DHT22;6121;49.810;6.418;2023-10-13T13:22:40;25.20;99.90
12115;DHT22;6121;49.810;6.418;2023-10-13T13:25:06;25.40;99.90
12115;DHT22;6121;49.810;6.418;2023-10-13T13:27:34;25.20;99.90
12115;DHT22;6121;49.810;6.418;2023-10-13T13:30:00;25.10;99.90
12115;DHT22;6121;49.810;6.418;2023-10-13T13:32:26;25.10;99.90
12115;DHT22;6121;49.810;6.418;2023-10-13T13:34:54;25.20;99.90
12115;DHT22;6121;49.810;6.418;2023-10-13T13:37:24;25.20;99.90
12115;DHT22;6121;49.810;6.418;2023-10-13T13:39:53;25.20;99.90
12115;DHT22;6121;49.810;6.418;2023-10-13T13:42:19;25.10;99.90
12115;DHT22;6121;49.810;6.418;2023-10-13T13:44:46;25.00;99.90
12115;DHT22;6121;49.810;6.418;2023-10-13T13:47:15;25.00;99.90
12115;DHT22;6121;49.810;6.418;2023-10-13T13:49:42;25.10;99.90
12115;DHT22;6121;49.810;6.418;2023-10-13T13:52:20;25.20;99.90
12115;DHT22;6121;49.810;6.418;2023-10-13T13:54:59;25.40;99.90
12115;DHT22;6121;49.810;6.418;2023-10-13T13:57:28;25.20;99.90
12115;DHT22;6121;49.810;6.418;2023-10-13T13:59:55;25.50;99.90
12115;DHT22;6121;49.810;6.418;2023-10-13T14:02:23;25.10;99.90
12115;DHT22;6121;49.810;6.418;2023-10-13T14:04:49;25.10;99.90
12115;DHT22;6121;49.810;6.418;2023-10-13T14:07:18;25.10;99.90
12115;DHT22;6121;49.810;6.418;2023-10-13T14:09:46;25.10;99.90
12115;DHT22;6121;49.810;6.418;2023-10-13T14:12:18;25.10;99.90
12115;DHT22;6121;49.810;6.418;2023-10-13T14:15:10;25.10;99.90
12115;DHT22;6121;49.810;6.418;2023-10-13T14:17:48;25.00;99.90
12115;DHT22;6121;49.810;6.418;2023-10-13T14:20:15;25.20;99.90
12115;DHT22;6121;49.810;6.418;2023-10-13T14:22:52;25.00;99.90
12115;DHT22;6121;49.810;6.418;2023-10-13T14:25:18;25.20;99.90
12115;DHT22;6121;49.810;6.418;2023-10-13T14:27:44;25.10;99.90
12115;DHT22;6121;49.810;6.418;2023-10-13T14:30:10;25.10;99.90
12115;DHT22;6121;49.810;6.418;2023-10-13T14:32:46;25.00;99.90
12115;DHT22;6121;49.810;6.418;2023-10-13T14:35:12;24.90;99.90
12115;DHT22;6121;49.810;6.418;2023-10-13T14:37:41;24.90;99.90
12115;DHT22;6121;49.810;6.418;2023-10-13T14:40:07;24.90;99.90
12115;DHT22;6121;49.810;6.418;2023-10-13T14:42:38;24.90;99.90
12115;DHT22;6121;49.810;6.418;2023-10-13T14:45:07;25.10;99.90
12115;DHT22;6121;49.810;6.418;2023-10-13T14:47:44;24.90;99.90
12115;DHT22;6121;49.810;6.418;2023-10-13T14:50:12;24.90;99.90
12115;DHT22;6121;49.810;6.418;2023-10-13T14:52:46;25.00;99.90
12115;DHT22;6121;49.810;6.418;2023-10-13T14:55:12;24.90;99.90
12115;DHT22;6121;49.810;6.418;2023-10-13T14:57:50;24.60;99.90
12115;DHT22;6121;49.810;6.418;2023-10-13T15:00:17;24.70;99.90
12115;DHT22;6121;49.810;6.418;2023-10-13T15:02:52;24.70;99.90
12115;DHT22;6121;49.810;6.418;2023-10-13T15:05:18;24.70;99.90
12115;DHT22;6121;49.810;6.418;2023-10-13T15:07:44;24.70;99.90
12115;DHT22;6121;49.810;6.418;2023-10-13T15:10:15;24.70;99.90
12115;DHT22;6121;49.810;6.418;2023-10-13T15:12:42;24.60;99.90
12115;DHT22;6121;49.810;6.418;2023-10-13T15:15:10;24.70;99.90
12115;DHT22;6121;49.810;6.418;2023-10-13T15:17:40;25.10;99.90
12115;DHT22;6121;49.810;6.418;2023-10-13T15:20:06;24.60;99.90
12115;DHT22;6121;49.810;6.418;2023-10-13T15:22:36;24.60;99.90
12115;DHT22;6121;49.810;6.418;2023-10-13T15:25:05;24.70;99.90
12115;DHT22;6121;49.810;6.418;2023-10-13T15:27:47;24.50;99.90
12115;DHT22;6121;49.810;6.418;2023-10-13T15:30:22;24.40;99.90
12115;DHT22;6121;49.810;6.418;2023-10-13T15:33:10;24.40;99.90
12115;DHT22;6121;49.810;6.418;2023-10-13T15:35:40;24.40;99.90
12115;DHT22;6121;49.810;6.418;2023-10-13T15:38:12;24.40;99.90
12115;DHT22;6121;49.810;6.418;2023-10-13T15:40:42;24.80;99.90
12115;DHT22;6121;49.810;6.418;2023-10-13T15:43:08;24.30;99.90
12115;DHT22;6121;49.810;6.418;2023-10-13T15:45:34;24.10;99.90
12115;DHT22;6121;49.810;6.418;2023-10-13T15:48:05;24.10;99.90
12115;DHT22;6121;49.810;6.418;2023-10-13T15:50:38;23.90;99.90
12115;DHT22;6121;49.810;6.418;2023-10-13T15:53:06;23.90;99.90
12115;DHT22;6121;49.810;6.418;2023-10-13T15:55:36;23.80;99.90
12115;DHT22;6121;49.810;6.418;2023-10-13T15:58:03;24.10;99.90
12115;DHT22;6121;49.810;6.418;2023-10-13T16:00:34;23.60;99.90
12115;DHT22;6121;49.810;6.418;2023-10-13T16:03:00;23.60;99.90
12115;DHT22;6121;49.810;6.418;2023-10-13T16:05:30;23.50;99.90
12115;DHT22;6121;49.810;6.418;2023-10-13T16:08:00;23.40;99.90
12115;DHT22;6121;49.810;6.418;2023-10-13T16:10:26;23.80;99.90
12115;DHT22;6121;49.810;6.418;2023-10-13T16:12:55;23.20;99.90
12115;DHT22;6121;49.810;6.418;2023-10-13T16:15:23;23.20;99.90
12115;DHT22;6121;49.810;6.418;2023-10-13T16:17:49;23.50;99.90
12115;DHT22;6121;49.810;6.418;2023-10-13T16:20:19;23.30;99.90
12115;DHT22;6121;49.810;6.418;2023-10-13T16:22:47;23.30;99.90
12115;DHT22;6121;49.810;6.418;2023-10-13T16:25:15;23.10;99.90
12115;DHT22;6121;49.810;6.418;2023-10-13T16:27:42;22.80;99.90
12115;DHT22;6121;49.810;6.418;2023-10-13T16:30:09;22.90;99.90
12115;DHT22;6121;49.810;6.418;2023-10-13T16:32:38;22.70;99.90
12115;DHT22;6121;49.810;6.418;2023-10-13T16:35:06;22.60;99.90